createdAt,value
2022-08-24T00:00:54.612Z,1.42
2022-08-24T00:04:02.992Z,1.05
2022-08-24T00:07:17.997Z,2.15
2022-08-24T00:10:35.616Z,1.20
2022-08-24T00:13:45.996Z,1.55
2022-08-24T00:16:55.007Z,1.65
2022-08-24T00:20:03.514Z,1.02
2022-08-24T00:23:11.921Z,1.40
2022-08-24T00:26:28.759Z,1.30
2022-08-24T00:29:39.806Z,1.38
2022-08-24T00:32:49.769Z,1.52
2022-08-24T00:35:58.697Z,1.00
2022-08-24T00:39:08.041Z,1.50
2022-08-24T00:42:16.308Z,1.80
2022-08-24T00:45:26.303Z,1.33
2022-08-24T00:48:37.774Z,1.20
2022-08-24T00:51:52.436Z,1.42
2022-08-24T00:55:09.740Z,1.40
2022-08-24T00:58:22.601Z,1.50
2022-08-24T01:01:34.748Z,1.48
2022-08-24T01:04:50.325Z,1.40
2022-08-24T01:07:59.569Z,1.40
2022-08-24T01:11:12.446Z,1.10
2022-08-24T01:14:23.027Z,1.38
2022-08-24T01:17:50.889Z,1.05
2022-08-24T01:21:04.815Z,1.42
2022-08-24T01:24:15.964Z,1.00
2022-08-24T01:27:28.231Z,1.45
2022-08-24T01:30:37.402Z,1.20
2022-08-24T01:33:50.922Z,1.40
2022-08-24T01:37:00.355Z,1.20
2022-08-24T01:40:11.153Z,1.25
2022-08-24T01:43:20.057Z,1.20
2022-08-24T01:46:28.839Z,1.35
2022-08-24T01:49:39.521Z,1.80
2022-08-24T01:53:04.929Z,1.17
2022-08-24T01:56:15.475Z,1.75
2022-08-24T01:59:25.485Z,1.25
2022-08-24T02:02:34.157Z,2.00
2022-08-24T02:05:42.548Z,3.33
2022-08-24T02:08:55.618Z,1.20
2022-08-24T02:12:06.484Z,1.45
2022-08-24T02:15:15.896Z,1.20
2022-08-24T02:18:24.394Z,1.20
2022-08-24T02:21:32.924Z,1.20
2022-08-24T02:24:41.977Z,1.20
2022-08-24T02:27:52.254Z,1.40
2022-08-24T02:31:01.319Z,1.52
2022-08-24T02:34:12.330Z,1.42
2022-08-24T02:37:21.988Z,1.25
2022-08-24T02:40:31.243Z,1.10
2022-08-24T02:43:41.553Z,1.10
2022-08-24T02:46:51.154Z,1.33
2022-08-24T02:50:02.685Z,1.30
2022-08-24T02:53:14.085Z,1.67
2022-08-24T02:56:22.559Z,1.20
2022-08-24T02:59:32.410Z,1.08
2022-08-24T03:02:41.137Z,1.10
2022-08-24T03:05:50.613Z,1.30
2022-08-24T03:09:00.843Z,1.20
2022-08-24T03:12:09.663Z,1.20
2022-08-24T03:15:22.864Z,1.00
2022-08-24T03:18:32.658Z,1.00
2022-08-24T03:21:41.762Z,1.38
2022-08-24T03:24:50.195Z,2.47
2022-08-24T03:27:58.811Z,1.15
2022-08-24T03:31:09.084Z,1.30
2022-08-24T03:34:19.791Z,1.00
2022-08-24T03:37:29.196Z,1.10
2022-08-24T03:40:38.115Z,1.25
2022-08-24T03:43:49.729Z,1.05
2022-08-24T03:47:02.519Z,1.13
2022-08-24T03:50:13.268Z,1.23
2022-08-24T03:53:23.974Z,1.30
2022-08-24T03:56:33.261Z,1.10
2022-08-24T03:59:46.781Z,1.10
2022-08-24T04:02:57.361Z,1.08
2022-08-24T04:06:09.509Z,1.10
2022-08-24T04:09:21.209Z,1.10
2022-08-24T04:12:29.681Z,0.90
2022-08-24T04:15:41.313Z,1.25
2022-08-24T04:18:51.994Z,0.88
2022-08-24T04:22:01.342Z,1.10
2022-08-24T04:25:12.218Z,0.93
2022-08-24T04:28:22.891Z,1.20
2022-08-24T04:31:33.855Z,0.80
2022-08-24T04:34:44.020Z,1.35
2022-08-24T04:37:53.067Z,1.30
2022-08-24T04:41:02.090Z,1.30
2022-08-24T04:44:10.519Z,1.20
2022-08-24T04:47:19.710Z,1.02
2022-08-24T04:50:30.377Z,1.20
2022-08-24T04:53:39.169Z,2.25
2022-08-24T04:56:47.616Z,1.65
2022-08-24T04:59:58.189Z,0.90
2022-08-24T05:03:06.877Z,1.27
2022-08-24T05:06:17.701Z,0.95
2022-08-24T05:09:27.088Z,1.25
2022-08-24T05:12:35.381Z,1.33
2022-08-24T05:15:48.445Z,0.95
2022-08-24T05:18:57.965Z,1.23
2022-08-24T05:22:08.593Z,1.38
2022-08-24T05:25:20.614Z,0.93
2022-08-24T05:28:29.296Z,2.95
2022-08-24T05:31:37.632Z,1.23
2022-08-24T05:34:50.405Z,1.30
2022-08-24T05:38:00.355Z,1.38
2022-08-24T05:41:15.318Z,1.45
2022-08-24T05:44:29.136Z,1.25
2022-08-24T05:47:41.230Z,1.60
2022-08-24T05:51:05.654Z,1.85
2022-08-24T05:54:18.186Z,1.00
2022-08-24T05:57:37.163Z,1.10
2022-08-24T06:00:52.811Z,1.23
2022-08-24T06:04:02.422Z,1.08
2022-08-24T06:07:11.515Z,1.02
2022-08-24T06:10:40.986Z,0.90
2022-08-24T06:13:54.417Z,0.90
2022-08-24T06:17:07.659Z,0.85
2022-08-24T06:20:16.210Z,1.27
2022-08-24T06:23:24.609Z,0.90
2022-08-24T06:27:00.175Z,1.13
2022-08-24T06:30:11.158Z,0.85
2022-08-24T06:33:37.943Z,0.80
2022-08-24T06:36:47.673Z,1.25
2022-08-24T06:39:57.636Z,0.70
2022-08-24T06:43:07.751Z,0.70
2022-08-24T06:46:32.873Z,0.55
2022-08-24T06:49:42.114Z,0.60
2022-08-24T06:52:50.467Z,0.65
2022-08-24T06:56:00.258Z,0.90
2022-08-24T06:59:16.077Z,0.80
2022-08-24T07:02:24.479Z,0.68
2022-08-24T07:05:35.068Z,0.65
2022-08-24T07:09:14.382Z,1.75
2022-08-24T07:12:23.921Z,0.80
2022-08-24T07:15:35.669Z,0.70
2022-08-24T07:18:53.800Z,0.50
2022-08-24T07:22:03.261Z,0.50
2022-08-24T07:25:13.481Z,0.60
2022-08-24T07:28:31.852Z,0.73
2022-08-24T07:31:44.780Z,0.93
2022-08-24T07:35:16.101Z,0.73
2022-08-24T07:38:24.608Z,1.20
2022-08-24T07:41:43.594Z,0.52
2022-08-24T07:45:01.813Z,0.70
2022-08-24T07:48:14.148Z,0.60
2022-08-24T07:51:27.335Z,0.80
2022-08-24T07:54:36.107Z,0.63
2022-08-24T07:57:46.215Z,0.50
2022-08-24T08:00:54.665Z,0.93
2022-08-24T08:04:04.859Z,0.80
2022-08-24T08:07:14.715Z,0.63
2022-08-24T08:10:23.579Z,0.90
2022-08-24T08:13:33.881Z,0.63
2022-08-24T08:16:42.518Z,0.80
2022-08-24T08:19:52.230Z,1.33
2022-08-24T08:23:18.186Z,0.85
2022-08-24T08:26:35.863Z,1.45
2022-08-24T08:29:52.685Z,0.60
2022-08-24T08:33:01.028Z,0.60
2022-08-24T08:36:15.041Z,0.50
2022-08-24T08:39:30.280Z,1.08
2022-08-24T08:42:57.825Z,0.70
2022-08-24T08:46:28.849Z,0.68
2022-08-24T08:50:07.290Z,0.60
2022-08-24T08:53:43.678Z,0.80
2022-08-24T08:57:12.222Z,0.63
2022-08-24T09:00:33.019Z,0.90
2022-08-24T09:04:03.331Z,0.50
2022-08-24T09:07:38.606Z,0.65
2022-08-24T09:10:58.153Z,0.80
2022-08-24T09:14:32.779Z,0.50
2022-08-24T09:18:00.201Z,0.95
2022-08-24T09:21:42.088Z,0.68
2022-08-24T09:25:07.315Z,0.85
2022-08-24T09:28:45.072Z,1.20
2022-08-24T09:32:22.654Z,0.63
2022-08-24T09:35:46.544Z,0.73
2022-08-24T09:39:08.792Z,0.80
2022-08-24T09:42:42.975Z,0.80
2022-08-24T09:46:24.822Z,0.75
2022-08-24T09:49:59.354Z,1.10
2022-08-24T09:53:37.554Z,0.70
2022-08-24T09:57:12.504Z,0.80
2022-08-24T10:00:30.090Z,0.60
2022-08-24T10:03:54.429Z,0.98
2022-08-24T10:07:14.903Z,0.60
2022-08-24T10:10:31.342Z,0.88
2022-08-24T10:13:49.582Z,1.23
2022-08-24T10:17:05.790Z,1.08
2022-08-24T10:20:23.954Z,0.90
2022-08-24T10:23:51.656Z,0.70
2022-08-24T10:27:25.033Z,1.08
2022-08-24T10:30:56.270Z,0.82
2022-08-24T10:34:24.244Z,0.90
2022-08-24T10:38:22.445Z,0.77
2022-08-24T10:42:04.874Z,1.10
2022-08-24T10:45:49.739Z,0.95
2022-08-24T10:49:34.231Z,1.23
2022-08-24T10:53:13.015Z,1.92
2022-08-24T10:56:28.965Z,1.00
2022-08-24T10:59:49.550Z,0.82
2022-08-24T11:03:12.833Z,1.00
2022-08-24T11:06:22.661Z,0.90
2022-08-24T11:09:45.505Z,1.30
2022-08-24T11:12:53.852Z,0.75
2022-08-24T11:16:05.567Z,0.75
2022-08-24T11:19:16.061Z,0.80
2022-08-24T11:22:34.174Z,0.75
2022-08-24T11:25:54.374Z,1.10
2022-08-24T11:29:06.493Z,0.88
2022-08-24T11:32:27.901Z,1.00
2022-08-24T11:35:39.853Z,1.10
2022-08-24T11:38:48.415Z,0.88
2022-08-24T11:42:00.880Z,0.73
2022-08-24T11:45:14.962Z,1.00
2022-08-24T11:48:37.837Z,1.15
2022-08-24T11:52:03.825Z,0.77
2022-08-24T11:55:18.959Z,1.10
2022-08-24T11:58:44.616Z,2.38
2022-08-24T12:01:55.767Z,1.08
2022-08-24T12:05:14.041Z,1.00
2022-08-24T12:08:35.643Z,1.00
2022-08-24T12:11:52.539Z,1.02
2022-08-24T12:15:07.068Z,1.08
2022-08-24T12:18:28.240Z,0.93
2022-08-24T12:21:42.484Z,0.82
2022-08-24T12:24:53.655Z,1.05
2022-08-24T12:28:05.985Z,0.90
2022-08-24T12:31:20.063Z,0.95
2022-08-24T12:34:33.185Z,1.20
2022-08-24T12:37:49.265Z,0.80
2022-08-24T12:41:02.331Z,1.05
2022-08-24T12:44:27.724Z,1.02
2022-08-24T12:47:40.981Z,0.90
2022-08-24T12:51:08.312Z,1.00
2022-08-24T12:54:39.478Z,1.20
2022-08-24T12:57:59.034Z,1.20
2022-08-24T13:01:08.828Z,1.10
2022-08-24T13:04:31.080Z,1.00
2022-08-24T13:07:45.222Z,1.13
2022-08-24T13:11:06.077Z,1.00
2022-08-24T13:14:21.435Z,1.02
2022-08-24T13:17:41.703Z,1.25
2022-08-24T13:20:56.594Z,0.93
2022-08-24T13:24:51.173Z,0.82
2022-08-24T13:28:08.473Z,0.80
2022-08-24T13:31:33.340Z,1.05
2022-08-24T13:34:44.984Z,1.25
2022-08-24T13:38:26.611Z,2.20
2022-08-24T13:41:48.665Z,0.82
2022-08-24T13:45:19.530Z,0.90
2022-08-24T13:48:43.406Z,1.30
2022-08-24T13:51:57.283Z,0.88
2022-08-24T13:55:17.370Z,0.88
2022-08-24T13:58:39.272Z,0.98
2022-08-24T14:02:08.791Z,1.02
2022-08-24T14:05:28.840Z,0.90
2022-08-24T14:08:46.966Z,1.02
2022-08-24T14:12:23.328Z,0.93
2022-08-24T14:15:49.932Z,1.00
2022-08-24T14:19:07.781Z,0.90
2022-08-24T14:22:31.092Z,1.00
2022-08-24T14:25:39.734Z,0.90
2022-08-24T14:28:48.715Z,1.02
2022-08-24T14:32:33.249Z,1.02
2022-08-24T14:35:45.723Z,0.90
2022-08-24T14:39:09.682Z,0.70
2022-08-24T14:42:23.100Z,0.70
2022-08-24T14:45:42.689Z,1.10
2022-08-24T14:49:00.934Z,1.13
2022-08-24T14:52:24.749Z,0.90
2022-08-24T14:55:39.952Z,0.80
2022-08-24T14:58:55.591Z,0.98
2022-08-24T15:02:37.372Z,0.70
2022-08-24T15:06:23.427Z,0.80
2022-08-24T15:09:35.683Z,0.63
2022-08-24T15:12:48.674Z,0.75
2022-08-24T15:16:02.522Z,1.00
2022-08-24T15:19:17.845Z,0.80
2022-08-24T15:22:44.390Z,0.90
2022-08-24T15:25:59.358Z,0.63
2022-08-24T15:29:15.227Z,1.20
2022-08-24T15:32:28.261Z,1.05
2022-08-24T15:35:40.278Z,0.90
2022-08-24T15:38:49.180Z,0.90
2022-08-24T15:42:00.148Z,0.63
2022-08-24T15:45:08.957Z,0.90
2022-08-24T15:48:20.819Z,0.95
2022-08-24T15:51:47.448Z,1.00
2022-08-24T15:55:00.366Z,0.98
2022-08-24T15:58:26.766Z,0.80
2022-08-24T16:01:59.949Z,1.02
2022-08-24T16:05:18.634Z,0.88
2022-08-24T16:08:30.665Z,0.80
2022-08-24T16:11:41.838Z,0.90
2022-08-24T16:15:03.877Z,1.10
2022-08-24T16:18:12.630Z,1.08
2022-08-24T16:21:28.777Z,0.90
2022-08-24T16:24:44.039Z,1.50
2022-08-24T16:28:10.089Z,1.83
2022-08-24T16:31:53.095Z,1.30
2022-08-24T16:35:18.776Z,1.10
2022-08-24T16:38:28.105Z,1.02
2022-08-24T16:41:38.817Z,1.13
2022-08-24T16:44:47.217Z,1.45
2022-08-24T16:47:56.969Z,0.75
2022-08-24T16:51:05.461Z,1.00
2022-08-24T16:54:14.093Z,1.52
2022-08-24T16:57:25.274Z,1.05
2022-08-24T17:00:33.716Z,0.80
2022-08-24T17:03:43.729Z,1.00
2022-08-24T17:06:52.075Z,1.10
2022-08-24T17:10:03.595Z,1.67
2022-08-24T17:13:16.593Z,2.03
2022-08-24T17:16:36.595Z,0.70
2022-08-24T17:19:46.386Z,1.02
2022-08-24T17:22:54.677Z,0.90
2022-08-24T17:26:06.408Z,0.88
2022-08-24T17:29:15.146Z,0.93
2022-08-24T17:32:27.815Z,1.05
2022-08-24T17:35:39.092Z,0.90
2022-08-24T17:38:55.311Z,0.90
2022-08-24T17:42:13.749Z,0.80
2022-08-24T17:45:33.535Z,0.90
2022-08-24T17:48:44.803Z,1.00
2022-08-24T17:51:56.103Z,0.70
2022-08-24T17:55:06.568Z,1.00
2022-08-24T17:58:16.228Z,1.00
2022-08-24T18:01:24.761Z,1.08
2022-08-24T18:04:35.730Z,0.98
2022-08-24T18:07:54.707Z,1.05
2022-08-24T18:11:03.237Z,1.38
2022-08-24T18:14:11.640Z,1.10
2022-08-24T18:17:22.972Z,1.30
2022-08-24T18:20:36.181Z,1.55
2022-08-24T18:23:46.202Z,1.17
2022-08-24T18:26:54.768Z,1.20
2022-08-24T18:30:05.791Z,1.70
2022-08-24T18:33:14.418Z,0.90
2022-08-24T18:36:22.740Z,1.00
2022-08-24T18:39:32.533Z,1.20
2022-08-24T18:42:42.127Z,1.50
2022-08-24T18:45:50.806Z,0.90
2022-08-24T18:48:59.553Z,1.10
2022-08-24T18:52:10.463Z,1.60
2022-08-24T18:55:27.099Z,1.90
2022-08-24T18:58:37.424Z,1.50
2022-08-24T19:02:05.562Z,1.13
2022-08-24T19:05:17.750Z,0.98
2022-08-24T19:08:26.108Z,1.10
2022-08-24T19:11:36.017Z,1.10
2022-08-24T19:14:46.492Z,1.23
2022-08-24T19:17:56.524Z,1.05
2022-08-24T19:21:05.151Z,1.15
2022-08-24T19:24:13.846Z,1.30
2022-08-24T19:27:24.822Z,1.00
2022-08-24T19:30:35.650Z,1.33
2022-08-24T19:33:49.808Z,1.23
2022-08-24T19:36:58.872Z,1.08
2022-08-24T19:40:10.659Z,0.95
2022-08-24T19:43:20.634Z,1.10
2022-08-24T19:46:32.075Z,1.20
2022-08-24T19:49:41.325Z,0.90
2022-08-24T19:52:49.897Z,1.30
2022-08-24T19:55:58.324Z,1.55
2022-08-24T19:59:19.412Z,0.90
2022-08-24T20:02:27.928Z,0.95
2022-08-24T20:05:36.415Z,0.90
2022-08-24T20:08:45.086Z,1.10
2022-08-24T20:11:56.903Z,1.20
2022-08-24T20:15:08.275Z,1.00
2022-08-24T20:18:17.129Z,1.20
2022-08-24T20:21:29.498Z,1.27
2022-08-24T20:24:38.650Z,1.40
2022-08-24T20:27:47.774Z,1.30
2022-08-24T20:30:57.928Z,1.30
2022-08-24T20:34:06.598Z,1.30
2022-08-24T20:37:19.135Z,1.63
2022-08-24T20:40:27.842Z,1.60
2022-08-24T20:43:36.210Z,1.75
2022-08-24T20:46:46.518Z,1.10
2022-08-24T20:49:55.618Z,1.05
2022-08-24T20:53:04.198Z,1.55
2022-08-24T20:56:16.426Z,1.45
2022-08-24T20:59:24.785Z,1.30
2022-08-24T21:02:34.470Z,1.25
2022-08-24T21:05:42.985Z,1.67
2022-08-24T21:08:55.183Z,1.52
2022-08-24T21:12:04.090Z,2.67
2022-08-24T21:15:13.538Z,1.73
2022-08-24T21:18:23.346Z,1.60
2022-08-24T21:21:34.809Z,1.75
2022-08-24T21:24:43.367Z,1.92
2022-08-24T21:27:51.824Z,1.75
2022-08-24T21:31:05.168Z,1.58
2022-08-24T21:34:33.172Z,1.63
2022-08-24T21:37:41.477Z,1.90
2022-08-24T21:40:49.898Z,1.70
2022-08-24T21:43:58.396Z,2.00
2022-08-24T21:47:07.965Z,1.85
2022-08-24T21:50:18.643Z,2.03
2022-08-24T21:53:29.065Z,2.25
2022-08-24T21:56:38.122Z,2.17
2022-08-24T21:59:46.447Z,1.98
2022-08-24T22:02:57.275Z,2.25
2022-08-24T22:06:08.034Z,2.42
2022-08-24T22:09:16.807Z,2.28
2022-08-24T22:12:25.255Z,2.30
2022-08-24T22:15:33.834Z,2.28
2022-08-24T22:18:42.297Z,2.40
2022-08-24T22:21:52.074Z,2.10
2022-08-24T22:25:00.830Z,2.03
2022-08-24T22:28:09.184Z,1.95
2022-08-24T22:31:20.272Z,2.10
2022-08-24T22:34:28.714Z,2.10
2022-08-24T22:37:38.464Z,2.15
2022-08-24T22:40:47.115Z,2.30
2022-08-24T22:44:13.234Z,2.08
2022-08-24T22:47:21.497Z,2.40
2022-08-24T22:50:32.403Z,2.10
2022-08-24T22:53:42.619Z,2.30
2022-08-24T22:56:52.914Z,2.10
2022-08-24T23:00:01.412Z,2.80
2022-08-24T23:03:09.697Z,2.13
2022-08-24T23:06:18.641Z,1.77
2022-08-24T23:09:28.551Z,1.95
2022-08-24T23:12:53.187Z,2.20
2022-08-24T23:16:01.779Z,2.10
2022-08-24T23:19:27.409Z,2.00
2022-08-24T23:22:40.149Z,1.73
2022-08-24T23:25:50.341Z,2.10
2022-08-24T23:28:58.756Z,2.10
2022-08-24T23:32:08.153Z,2.00
2022-08-24T23:35:16.515Z,1.85
2022-08-24T23:38:25.113Z,2.03
2022-08-24T23:41:38.253Z,1.90
2022-08-24T23:44:46.983Z,1.88
2022-08-24T23:47:57.189Z,1.90
2022-08-24T23:51:08.534Z,1.95
2022-08-24T23:54:17.549Z,1.90
2022-08-24T23:57:28.547Z,1.80
